This is the latest recevied weather packets stored in our database for station/object OK1FET-15. If no packets are shown the sender has not sent any weather packets the latest 1 day(s).
| Time | Temp. | Humidity | Pressure | Rain* | Wind** | Luminosity | Snow |
|---|---|---|---|---|---|---|---|
| 1778045379 | 11.67° C | 100% | 1007.2 hPa | - | - | - | - |
| 1778045072 | 12.22° C | 100% | 1007.2 hPa | - | - | - | - |
| 1778044765 | 12.22° C | 100% | 1007.2 hPa | - | - | - | - |
| 1778044458 | 12.22° C | 100% | 1007.2 hPa | - | - | - | - |
| 1778043536 | 11.67° C | 100% | 1007.3 hPa | - | - | - | - |
| 1778043229 | 11.67° C | 100% | 1007.3 hPa | - | - | - | - |
| 1778042922 | 11.67° C | 100% | 1007.3 hPa | - | - | - | - |
| 1778042615 | 11.67° C | 100% | 1007.2 hPa | - | - | - | - |
| 1778042308 | 11.67° C | 100% | 1007.2 hPa | - | - | - | - |
| 1778042001 | 12.22° C | 100% | 1007.3 hPa | - | - | - | - |
| 1778041079 | 11.11° C | 100% | 1007.3 hPa | - | - | - | - |
| 1778039544 | 8.89° C | 100% | 1006.8 hPa | - | - | - | - |
| 1778039237 | 8.89° C | 100% | 1006.9 hPa | - | - | - | - |
| 1778037395 | 8.89° C | 100% | 1006.8 hPa | - | - | - | - |
| 1778036781 | 9.44° C | 100% | 1006.8 hPa | - | - | - | - |
| 1778036168 | 9.44° C | 100% | 1006.7 hPa | - | - | - | - |
| 1778035554 | 9.44° C | 100% | 1006.7 hPa | - | - | - | - |
| 1778035247 | 10° C | 100% | 1006.7 hPa | - | - | - | - |
| 1778031869 | 10° C | 100% | 1007 hPa | - | - | - | - |
| 1778031562 | 9.44° C | 100% | 1007 hPa | - | - | - | - |
| 1778031255 | 10° C | 100% | 1007.1 hPa | - | - | - | - |
| 1778030948 | 10° C | 100% | 1007 hPa | - | - | - | - |
| 1778030641 | 10° C | 100% | 1007 hPa | - | - | - | - |
| 1778030334 | 10° C | 100% | 1006.9 hPa | - | - | - | - |
| 1778030027 | 10° C | 100% | 1006.8 hPa | - | - | - | - |
* Rain since midnight (hover to see other rain measurements)
** Current wind speed in m/s (hover to see current wind gust speed)